Time;durP1;ratioP1;P1;durP2;ratioP2;P2;SDS_P1;SDS_P2;PMS_P1;PMS_P2;Temp;Humidity;BMP_temperature;BMP_pressure;BME280_temperature;BME280_humidity;BME280_pressure;Samples;Min_cycle;Max_cycle;Signal;HPM_P1;HPM_P2
2023/08/02 00:02:15;;;;;;;1.95;1.05;;;18.30;99.90;;;;;;4957173;28;20416;-78
2023/08/02 00:04:41;;;;;;;1.60;0.85;;;18.30;99.90;;;;;;4937946;28;20117;-80
2023/08/02 00:07:07;;;;;;;1.80;1.10;;;18.30;99.90;;;;;;4983003;28;20392;-79
2023/08/02 00:09:33;;;;;;;2.60;1.17;;;18.30;99.90;;;;;;4944757;28;20780;-81
2023/08/02 00:12:00;;;;;;;2.22;1.00;;;18.30;99.90;;;;;;4927059;28;20767;-78
2023/08/02 00:14:25;;;;;;;2.20;1.10;;;18.40;99.90;;;;;;4958994;28;20030;-79
2023/08/02 00:16:51;;;;;;;1.58;0.88;;;18.40;99.90;;;;;;4941780;28;20125;-78
2023/08/02 00:19:17;;;;;;;2.93;1.20;;;18.40;99.90;;;;;;4955698;28;20047;-78
2023/08/02 00:21:43;;;;;;;2.78;1.10;;;18.40;99.90;;;;;;4963019;28;20480;-81
2023/08/02 00:24:09;;;;;;;2.67;1.33;;;18.30;99.90;;;;;;4932122;28;20657;-80
2023/08/02 00:26:35;;;;;;;2.07;1.00;;;18.40;99.90;;;;;;4955011;28;20282;-81
2023/08/02 00:29:01;;;;;;;2.28;1.10;;;18.40;99.90;;;;;;4952760;28;20082;-79
2023/08/02 00:31:27;;;;;;;1.70;1.00;;;18.40;99.90;;;;;;4960140;28;20436;-78
2023/08/02 00:33:52;;;;;;;1.20;0.90;;;18.40;99.90;;;;;;4920822;28;20049;-78
2023/08/02 00:36:18;;;;;;;1.77;1.10;;;18.40;99.90;;;;;;4942456;28;20037;-78
2023/08/02 00:38:44;;;;;;;1.50;0.93;;;18.40;99.90;;;;;;4958780;28;20041;-80
2023/08/02 00:41:10;;;;;;;2.05;1.10;;;18.40;99.90;;;;;;4940853;28;20569;-78
2023/08/02 00:43:44;;;;;;;2.27;1.20;;;18.40;99.90;;;;;;4933449;28;20022;-81
2023/08/02 00:46:10;;;;;;;1.83;0.90;;;18.40;99.90;;;;;;4965763;28;20289;-78
2023/08/02 00:48:37;;;;;;;2.42;1.13;;;18.40;99.90;;;;;;4955163;28;20081;-80
2023/08/02 00:51:04;;;;;;;2.63;1.38;;;18.40;99.90;;;;;;4925413;28;20518;-78
2023/08/02 00:53:30;;;;;;;2.35;1.15;;;18.40;99.90;;;;;;4946263;28;20128;-81
2023/08/02 00:55:56;;;;;;;2.17;1.20;;;18.40;99.90;;;;;;4945391;28;20679;-78
2023/08/02 00:58:22;;;;;;;1.97;1.10;;;18.40;99.90;;;;;;4955903;28;20628;-77
2023/08/02 01:00:48;;;;;;;2.33;1.25;;;18.40;99.90;;;;;;4969471;28;20172;-78
2023/08/02 01:03:15;;;;;;;2.08;1.10;;;18.40;99.90;;;;;;4959155;28;20038;-79
2023/08/02 01:05:50;;;;;;;2.70;1.20;;;18.40;99.90;;;;;;4928288;28;20081;-81
2023/08/02 01:08:22;;;;;;;1.83;1.08;;;18.50;99.90;;;;;;4975352;28;20042;-78
2023/08/02 01:11:00;;;;;;;2.73;1.10;;;18.40;99.90;;;;;;4974323;28;20053;-78
2023/08/02 01:13:29;;;;;;;1.90;1.20;;;18.40;99.90;;;;;;4944035;28;20039;-78
2023/08/02 01:15:56;;;;;;;2.53;1.20;;;18.50;99.90;;;;;;4943672;28;20253;-79
2023/08/02 01:18:21;;;;;;;1.30;0.93;;;18.40;99.90;;;;;;4982610;28;20034;-79
2023/08/02 01:20:47;;;;;;;1.73;1.13;;;18.50;99.90;;;;;;4926654;28;20248;-80
2023/08/02 01:23:13;;;;;;;2.30;1.42;;;18.50;99.90;;;;;;4946960;28;20046;-79
2023/08/02 01:25:42;;;;;;;1.70;1.17;;;18.50;99.90;;;;;;4959861;28;20025;-81
2023/08/02 01:28:16;;;;;;;3.03;1.20;;;18.50;99.90;;;;;;4942354;28;20034;-81
2023/08/02 01:30:44;;;;;;;3.00;1.23;;;18.50;99.90;;;;;;4973628;28;20033;-81
2023/08/02 01:33:10;;;;;;;2.00;1.05;;;18.50;99.90;;;;;;4969549;28;20038;-81
2023/08/02 01:35:37;;;;;;;2.78;1.40;;;18.50;99.90;;;;;;4955340;28;20412;-78
2023/08/02 01:38:03;;;;;;;1.63;1.00;;;18.50;99.90;;;;;;4970375;28;20516;-80
2023/08/02 01:40:29;;;;;;;2.47;1.05;;;18.50;99.90;;;;;;4964218;28;20520;-77
2023/08/02 01:42:54;;;;;;;1.92;1.20;;;18.50;99.90;;;;;;4967277;28;20045;-81
2023/08/02 01:45:21;;;;;;;1.97;1.10;;;18.50;99.90;;;;;;4955956;28;20222;-80
2023/08/02 01:47:47;;;;;;;1.60;1.08;;;18.50;99.90;;;;;;4964643;28;20142;-79
2023/08/02 01:50:13;;;;;;;1.55;0.95;;;18.50;99.90;;;;;;4927641;28;20412;-78
2023/08/02 01:52:39;;;;;;;1.53;0.83;;;18.50;99.90;;;;;;4957319;28;20022;-78
2023/08/02 01:55:05;;;;;;;2.55;1.10;;;18.50;99.90;;;;;;4962891;28;20030;-81
2023/08/02 01:57:31;;;;;;;2.17;1.10;;;18.60;99.90;;;;;;4980110;28;20420;-78
2023/08/02 01:59:56;;;;;;;2.57;1.10;;;18.60;99.90;;;;;;4930133;28;20062;-80
2023/08/02 02:02:22;;;;;;;2.03;1.10;;;18.60;99.90;;;;;;4968336;28;20514;-79
2023/08/02 02:04:48;;;;;;;2.67;1.20;;;18.60;99.90;;;;;;4978063;28;20483;-79
2023/08/02 02:07:13;;;;;;;2.30;1.33;;;18.60;99.90;;;;;;4927029;28;20300;-79
2023/08/02 02:09:39;;;;;;;2.23;1.20;;;18.60;99.90;;;;;;4948920;28;20022;-79
2023/08/02 02:12:05;;;;;;;2.15;1.20;;;18.60;99.90;;;;;;4962117;28;20027;-80
2023/08/02 02:14:31;;;;;;;1.73;1.07;;;18.60;99.90;;;;;;4930540;28;20045;-79
2023/08/02 02:16:57;;;;;;;2.00;1.00;;;18.60;99.90;;;;;;4954391;28;20038;-81
2023/08/02 02:19:22;;;;;;;1.80;1.20;;;18.50;99.90;;;;;;4952521;28;20045;-78
2023/08/02 02:21:48;;;;;;;2.72;1.10;;;18.50;99.90;;;;;;4955744;28;20030;-79
2023/08/02 02:24:14;;;;;;;1.40;1.20;;;18.50;99.90;;;;;;4963372;28;20350;-78
2023/08/02 02:26:40;;;;;;;2.55;1.20;;;18.50;99.90;;;;;;4981330;28;21065;-81
2023/08/02 02:29:05;;;;;;;1.90;1.10;;;18.50;99.90;;;;;;4933644;28;20170;-81
2023/08/02 02:31:31;;;;;;;3.00;1.10;;;18.50;99.90;;;;;;4948273;28;20031;-79
2023/08/02 02:33:57;;;;;;;1.67;1.10;;;18.50;99.90;;;;;;4979042;28;20030;-81
2023/08/02 02:36:23;;;;;;;3.30;1.10;;;18.40;99.90;;;;;;4948175;28;21362;-81
2023/08/02 02:38:48;;;;;;;1.95;1.23;;;18.40;99.90;;;;;;4970823;28;20022;-79
2023/08/02 02:41:14;;;;;;;2.20;1.13;;;18.40;99.90;;;;;;4958582;28;20643;-79
2023/08/02 02:43:40;;;;;;;2.42;1.25;;;18.40;99.90;;;;;;4963007;28;20029;-80
2023/08/02 02:46:05;;;;;;;2.00;1.27;;;18.40;99.90;;;;;;4938747;28;20046;-81
2023/08/02 02:48:31;;;;;;;2.83;1.30;;;18.40;99.90;;;;;;4937409;28;20503;-78
2023/08/02 02:50:57;;;;;;;1.57;1.23;;;18.40;99.90;;;;;;4960545;28;20041;-80
2023/08/02 02:53:23;;;;;;;2.13;1.35;;;18.40;99.90;;;;;;4941009;28;20145;-80
2023/08/02 02:55:51;;;;;;;2.03;1.20;;;18.40;99.90;;;;;;4964887;28;20027;-80
2023/08/02 02:58:17;;;;;;;4.33;1.10;;;18.40;99.90;;;;;;4940530;28;20291;-81
2023/08/02 03:00:43;;;;;;;1.60;1.13;;;18.40;99.90;;;;;;4922514;28;20026;-79
2023/08/02 03:03:09;;;;;;;2.15;1.30;;;18.40;99.90;;;;;;4944960;28;20042;-81
2023/08/02 03:05:37;;;;;;;1.80;1.13;;;18.40;99.90;;;;;;4975474;28;20038;-78
2023/08/02 03:08:02;;;;;;;2.10;1.10;;;18.30;99.90;;;;;;4938102;28;20023;-82
2023/08/02 03:10:28;;;;;;;3.10;1.35;;;18.40;99.90;;;;;;4963853;28;20252;-81
2023/08/02 03:12:54;;;;;;;2.43;1.30;;;18.30;99.90;;;;;;4945567;28;20026;-83
2023/08/02 03:15:19;;;;;;;2.08;1.30;;;19.50;99.90;;;;;;4945501;28;20145;-81
2023/08/02 03:17:45;;;;;;;2.50;1.60;;;18.20;99.90;;;;;;4976047;28;20030;-79
2023/08/02 03:20:11;;;;;;;3.03;1.40;;;18.30;99.90;;;;;;4952073;28;20455;-80
2023/08/02 03:22:36;;;;;;;3.15;1.50;;;18.30;99.90;;;;;;4949398;28;20409;-81
2023/08/02 03:25:02;;;;;;;1.60;1.10;;;18.30;99.90;;;;;;4940889;28;20483;-83
2023/08/02 03:27:28;;;;;;;2.10;1.40;;;18.30;99.90;;;;;;4965091;28;20516;-81
2023/08/02 03:29:53;;;;;;;1.90;1.20;;;18.30;99.90;;;;;;4967637;28;20030;-83
2023/08/02 03:32:19;;;;;;;2.33;1.10;;;19.20;99.90;;;;;;4927886;28;20528;-81
2023/08/02 03:34:45;;;;;;;2.03;1.20;;;18.30;99.90;;;;;;4950557;28;20048;-82
2023/08/02 03:37:10;;;;;;;3.03;1.60;;;18.30;99.90;;;;;;4946496;28;20659;-82
2023/08/02 03:39:36;;;;;;;1.83;1.37;;;19.90;99.90;;;;;;4941274;28;20027;-81
2023/08/02 03:42:02;;;;;;;2.40;1.35;;;;;;;;;;4947567;28;20423;-83
2023/08/02 03:44:28;;;;;;;2.67;1.45;;;18.30;99.90;;;;;;4958197;28;20030;-85
2023/08/02 03:46:54;;;;;;;2.50;1.40;;;18.30;99.90;;;;;;4963143;28;20022;-80
2023/08/02 03:49:20;;;;;;;2.88;1.48;;;18.30;99.90;;;;;;4950981;28;20031;-83
2023/08/02 03:51:47;;;;;;;2.63;1.50;;;18.30;99.90;;;;;;4968339;28;20699;-79
2023/08/02 03:54:13;;;;;;;2.28;1.30;;;18.30;99.90;;;;;;4960458;28;20046;-82
2023/08/02 03:56:39;;;;;;;3.45;1.42;;;18.30;99.90;;;;;;4943211;28;20167;-80
2023/08/02 03:59:04;;;;;;;2.83;1.50;;;18.30;99.90;;;;;;4960940;28;20038;-80
2023/08/02 04:01:30;;;;;;;2.97;1.70;;;;;;;;;;4978431;28;20080;-82
2023/08/02 04:03:56;;;;;;;2.63;1.40;;;18.20;99.90;;;;;;4949503;28;20566;-80
2023/08/02 04:06:22;;;;;;;4.30;1.50;;;18.30;99.90;;;;;;4977019;28;20026;-82
2023/08/02 04:08:47;;;;;;;3.05;1.27;;;18.20;99.90;;;;;;4957710;28;20372;-80
2023/08/02 04:11:13;;;;;;;2.63;1.37;;;18.30;99.90;;;;;;4933991;28;20718;-82
2023/08/02 04:13:39;;;;;;;2.45;1.60;;;18.30;99.90;;;;;;4959870;28;20141;-80
2023/08/02 04:16:05;;;;;;;2.63;1.50;;;18.30;99.90;;;;;;4953525;28;20440;-82
2023/08/02 04:18:30;;;;;;;2.67;1.63;;;18.30;99.90;;;;;;4931585;28;20066;-84
2023/08/02 04:20:59;;;;;;;2.93;1.97;;;18.20;99.90;;;;;;4952973;28;20089;-81
2023/08/02 04:23:26;;;;;;;2.60;1.60;;;18.20;99.90;;;;;;4955991;28;20428;-83
2023/08/02 04:25:52;;;;;;;3.20;1.50;;;18.20;99.90;;;;;;4946530;28;20022;-81
2023/08/02 04:28:18;;;;;;;2.28;1.35;;;18.30;99.90;;;;;;4949474;28;20030;-83
2023/08/02 04:30:52;;;;;;;2.80;1.53;;;18.20;99.90;;;;;;4978155;28;20245;-81
2023/08/02 04:33:18;;;;;;;2.85;1.83;;;18.20;99.90;;;;;;4983913;28;20381;-84
2023/08/02 04:35:44;;;;;;;2.80;1.52;;;18.30;99.90;;;;;;4967366;28;20303;-81
2023/08/02 04:38:10;;;;;;;2.63;1.57;;;18.30;99.90;;;;;;4945725;28;20033;-82
2023/08/02 04:40:39;;;;;;;1.75;1.23;;;17.80;99.90;;;;;;4924232;28;20065;-82
2023/08/02 04:43:05;;;;;;;2.78;1.60;;;18.30;99.90;;;;;;4985381;28;20045;-83
2023/08/02 04:45:30;;;;;;;2.17;1.47;;;18.30;99.90;;;;;;4958701;28;20504;-83
2023/08/02 04:47:56;;;;;;;2.53;1.38;;;18.30;99.90;;;;;;4953837;28;20485;-81
2023/08/02 04:50:22;;;;;;;2.30;1.67;;;18.30;99.90;;;;;;4959489;28;20840;-82
2023/08/02 04:52:47;;;;;;;2.20;1.55;;;18.30;99.90;;;;;;4945836;28;20452;-83
2023/08/02 04:55:13;;;;;;;2.67;1.50;;;18.30;99.90;;;;;;4959567;28;20666;-80
2023/08/02 04:57:39;;;;;;;3.42;1.75;;;18.30;99.90;;;;;;4964487;28;20026;-81
2023/08/02 05:00:06;;;;;;;2.60;1.33;;;18.30;99.90;;;;;;4951312;28;20252;-81
2023/08/02 05:02:36;;;;;;;2.25;1.40;;;18.30;99.90;;;;;;4950372;28;20033;-81
2023/08/02 05:05:02;;;;;;;1.92;1.40;;;18.30;99.90;;;;;;4944362;28;20048;-81
2023/08/02 05:07:34;;;;;;;2.00;1.30;;;18.30;99.90;;;;;;4930815;28;20089;-83
2023/08/02 05:10:03;;;;;;;1.97;1.50;;;18.30;99.90;;;;;;4960293;28;20018;-81
2023/08/02 05:12:39;;;;;;;2.28;1.40;;;18.30;99.90;;;;;;4956730;28;20053;-83
2023/08/02 05:15:06;;;;;;;2.15;1.30;;;18.30;99.90;;;;;;4963763;28;20030;-81
2023/08/02 05:17:32;;;;;;;2.47;1.38;;;18.30;99.90;;;;;;4961345;28;20097;-82
2023/08/02 05:19:58;;;;;;;1.85;1.30;;;18.30;99.90;;;;;;4984907;28;20062;-82
2023/08/02 05:22:24;;;;;;;1.90;1.37;;;18.40;99.90;;;;;;4949580;28;20042;-83
2023/08/02 05:24:51;;;;;;;1.77;1.30;;;18.30;99.90;;;;;;4938715;28;20049;-81
2023/08/02 05:27:17;;;;;;;1.90;1.30;;;18.30;99.90;;;;;;4947344;28;20752;-83
2023/08/02 05:29:42;;;;;;;1.40;1.07;;;18.30;99.90;;;;;;4947966;28;20018;-81
2023/08/02 05:32:08;;;;;;;1.70;1.13;;;18.30;99.90;;;;;;4969148;28;20719;-82
2023/08/02 05:34:34;;;;;;;1.73;1.08;;;18.30;99.90;;;;;;4943490;28;20380;-81
2023/08/02 05:37:00;;;;;;;2.60;1.10;;;18.30;99.90;;;;;;4952678;28;20320;-80
2023/08/02 05:39:25;;;;;;;1.30;1.13;;;18.30;99.90;;;;;;4938641;28;20685;-83
2023/08/02 05:41:51;;;;;;;1.87;1.30;;;18.30;99.90;;;;;;4956962;28;20053;-82
2023/08/02 05:44:17;;;;;;;1.60;1.10;;;18.30;99.90;;;;;;4963155;28;20057;-83
2023/08/02 05:46:43;;;;;;;1.40;1.20;;;18.30;99.90;;;;;;4944018;28;20022;-83
2023/08/02 05:49:09;;;;;;;1.98;1.40;;;18.30;99.90;;;;;;4942466;28;20019;-83
2023/08/02 05:51:35;;;;;;;1.40;1.00;;;18.30;99.90;;;;;;4979180;28;20022;-81
2023/08/02 05:54:01;;;;;;;1.73;1.10;;;17.90;99.90;;;;;;4931052;28;21913;-86
2023/08/02 05:56:27;;;;;;;1.55;1.10;;;;;;;;;;4948997;28;20182;-81
2023/08/02 05:58:52;;;;;;;2.70;1.20;;;18.30;99.90;;;;;;4963809;28;20041;-81
2023/08/02 06:01:18;;;;;;;1.30;0.90;;;18.30;99.90;;;;;;4984468;28;20083;-81
2023/08/02 06:03:44;;;;;;;1.70;1.10;;;18.40;99.90;;;;;;4950990;28;20036;-82
2023/08/02 06:06:09;;;;;;;1.73;0.90;;;18.40;99.90;;;;;;4944452;28;20034;-83
2023/08/02 06:08:36;;;;;;;1.20;0.90;;;18.40;99.90;;;;;;4933285;28;21197;-83
2023/08/02 06:11:02;;;;;;;1.95;1.00;;;18.40;99.90;;;;;;4950011;28;20387;-83
2023/08/02 06:13:29;;;;;;;1.00;0.87;;;18.10;99.90;;;;;;4942430;28;20154;-82
2023/08/02 06:15:55;;;;;;;2.17;1.00;;;18.40;99.90;;;;;;4966173;28;20477;-84
2023/08/02 06:18:20;;;;;;;1.35;1.00;;;18.40;99.90;;;;;;4957710;28;20300;-82
2023/08/02 06:20:46;;;;;;;1.00;0.90;;;18.50;99.90;;;;;;4945547;28;20089;-81
2023/08/02 06:23:12;;;;;;;1.50;0.95;;;18.50;99.90;;;;;;4955381;28;20394;-83
2023/08/02 06:25:38;;;;;;;1.87;0.97;;;18.50;99.90;;;;;;4934645;28;20042;-82
2023/08/02 06:28:04;;;;;;;0.90;0.77;;;18.50;99.90;;;;;;4932601;28;20114;-83
2023/08/02 06:30:31;;;;;;;1.25;0.80;;;18.50;99.90;;;;;;4942333;28;20041;-82
2023/08/02 06:32:56;;;;;;;2.57;0.87;;;18.50;99.90;;;;;;4946711;28;20511;-84
2023/08/02 06:35:22;;;;;;;1.08;0.88;;;18.50;99.90;;;;;;4956235;28;20241;-81
2023/08/02 06:37:48;;;;;;;0.90;0.80;;;18.50;99.90;;;;;;4985023;28;20029;-82
2023/08/02 06:40:14;;;;;;;0.80;0.70;;;18.20;99.90;;;;;;4932587;28;20038;-82
2023/08/02 06:42:39;;;;;;;1.20;0.80;;;18.50;99.90;;;;;;4959297;28;20016;-81
2023/08/02 06:45:06;;;;;;;0.80;0.70;;;18.60;99.90;;;;;;4948254;28;20034;-84
2023/08/02 06:47:32;;;;;;;0.90;0.80;;;18.50;99.90;;;;;;4957972;28;20041;-81
2023/08/02 06:49:58;;;;;;;0.70;0.70;;;18.60;99.90;;;;;;4950234;28;20547;-82
2023/08/02 06:52:24;;;;;;;1.10;0.60;;;18.60;99.90;;;;;;4937671;28;20247;-82
2023/08/02 06:54:53;;;;;;;0.70;0.70;;;18.60;99.90;;;;;;4962722;28;20499;-84
2023/08/02 06:57:22;;;;;;;0.60;0.50;;;18.70;99.90;;;;;;4944753;28;20277;-80
2023/08/02 06:59:52;;;;;;;0.60;0.60;;;18.70;99.90;;;;;;4954139;28;20330;-82
2023/08/02 07:02:18;;;;;;;0.77;0.60;;;18.70;99.90;;;;;;4937993;28;20275;-82
2023/08/02 07:04:44;;;;;;;0.70;0.70;;;18.80;99.90;;;;;;4943363;28;20034;-83
2023/08/02 07:07:10;;;;;;;0.60;0.50;;;18.80;99.90;;;;;;4957114;28;20205;-81
2023/08/02 07:09:35;;;;;;;0.50;0.50;;;18.80;99.90;;;;;;4949517;28;20096;-80
2023/08/02 07:12:01;;;;;;;0.50;0.50;;;18.90;99.90;;;;;;4938895;28;20723;-83
2023/08/02 07:14:27;;;;;;;0.50;0.50;;;18.90;99.90;;;;;;4936370;28;20030;-82
2023/08/02 07:16:53;;;;;;;0.50;0.40;;;19.00;99.90;;;;;;4943581;28;20054;-83
2023/08/02 07:19:19;;;;;;;1.10;0.60;;;19.00;99.90;;;;;;4983836;28;20062;-82
2023/08/02 07:21:44;;;;;;;0.40;0.40;;;19.10;99.90;;;;;;4949812;28;20037;-79
2023/08/02 07:24:10;;;;;;;0.50;0.50;;;19.20;99.90;;;;;;4955612;28;20149;-82
2023/08/02 07:26:36;;;;;;;0.40;0.40;;;19.20;99.90;;;;;;4964201;28;20042;-82
2023/08/02 07:29:01;;;;;;;0.50;0.40;;;19.30;99.90;;;;;;4956795;28;20066;-84
2023/08/02 07:31:27;;;;;;;0.43;0.40;;;19.30;99.90;;;;;;4931625;28;20064;-82
2023/08/02 07:33:53;;;;;;;0.45;0.32;;;19.40;99.90;;;;;;4926405;28;20425;-83
2023/08/02 07:36:20;;;;;;;0.40;0.40;;;19.50;99.90;;;;;;4962907;28;20045;-81
2023/08/02 07:38:46;;;;;;;0.40;0.35;;;19.60;99.90;;;;;;4966794;28;20030;-83
2023/08/02 07:41:13;;;;;;;0.43;0.40;;;19.70;99.90;;;;;;4940952;28;20299;-83
2023/08/02 07:43:39;;;;;;;0.30;0.30;;;19.70;99.90;;;;;;4938959;28;20041;-83
2023/08/02 07:46:05;;;;;;;0.57;0.50;;;19.80;99.90;;;;;;4941566;28;20520;-87
2023/08/02 07:48:31;;;;;;;0.50;0.50;;;19.90;99.90;;;;;;4945605;28;20169;-83
2023/08/02 07:50:57;;;;;;;0.57;0.38;;;20.00;99.90;;;;;;4945674;28;20113;-83
2023/08/02 07:53:22;;;;;;;0.75;0.60;;;20.10;99.90;;;;;;4965098;28;20240;-83
2023/08/02 07:55:49;;;;;;;0.50;0.50;;;20.10;99.90;;;;;;4963286;28;20028;-82
2023/08/02 07:58:16;;;;;;;0.40;0.40;;;20.20;99.90;;;;;;4929700;28;20440;-85
2023/08/02 08:00:42;;;;;;;0.32;0.32;;;20.20;99.90;;;;;;4947318;28;20292;-84
2023/08/02 08:03:07;;;;;;;0.40;0.40;;;20.30;99.90;;;;;;4946114;28;20356;-82
2023/08/02 08:05:33;;;;;;;0.60;0.60;;;20.40;99.90;;;;;;4948063;28;20081;-83
2023/08/02 08:07:59;;;;;;;0.50;0.50;;;20.50;99.90;;;;;;4961759;28;20018;-83
2023/08/02 08:10:26;;;;;;;0.40;0.40;;;20.60;99.90;;;;;;4947969;28;20546;-82
2023/08/02 08:12:51;;;;;;;0.63;0.63;;;20.70;99.90;;;;;;4978191;28;20125;-83
2023/08/02 08:15:17;;;;;;;0.60;0.60;;;20.80;99.90;;;;;;4931551;28;20034;-79
2023/08/02 08:17:43;;;;;;;0.47;0.47;;;20.90;99.90;;;;;;4956545;28;20026;-80
2023/08/02 08:20:09;;;;;;;0.50;0.50;;;21.00;99.90;;;;;;4930315;28;20106;-82
2023/08/02 08:22:35;;;;;;;0.60;0.60;;;21.10;99.90;;;;;;4982526;28;20108;-83
2023/08/02 08:25:01;;;;;;;1.13;0.50;;;21.40;99.90;;;;;;4961107;28;20109;-84
2023/08/02 08:27:26;;;;;;;0.50;0.50;;;21.50;99.90;;;;;;4949524;28;20281;-80
2023/08/02 08:29:52;;;;;;;0.57;0.57;;;21.80;99.90;;;;;;4948089;28;20358;-84
2023/08/02 08:32:18;;;;;;;0.40;0.40;;;22.00;99.90;;;;;;4956313;28;20343;-82
2023/08/02 08:34:44;;;;;;;0.60;0.60;;;22.20;99.90;;;;;;4932706;28;20113;-82
2023/08/02 08:37:10;;;;;;;0.80;0.50;;;22.60;99.90;;;;;;4942055;28;20034;-80
2023/08/02 08:39:37;;;;;;;0.60;0.60;;;22.40;99.90;;;;;;4960806;28;20030;-80
2023/08/02 08:42:07;;;;;;;0.60;0.60;;;22.50;99.90;;;;;;4975366;28;20030;-81
2023/08/02 08:44:37;;;;;;;0.50;0.50;;;22.50;99.90;;;;;;4950987;28;20034;-80
2023/08/02 08:47:05;;;;;;;1.00;0.50;;;22.60;99.90;;;;;;4939648;28;20027;-85
2023/08/02 08:49:31;;;;;;;0.60;0.50;;;22.70;99.90;;;;;;4953387;28;20030;-81
2023/08/02 08:52:01;;;;;;;0.90;0.50;;;22.80;99.90;;;;;;4950595;28;20022;-84
2023/08/02 08:54:28;;;;;;;0.60;0.60;;;22.90;99.90;;;;;;4978383;28;20209;-81
2023/08/02 08:56:55;;;;;;;0.50;0.50;;;22.90;99.90;;;;;;4954801;28;20018;-83
2023/08/02 08:59:22;;;;;;;1.27;0.52;;;23.00;99.90;;;;;;4946566;28;20302;-82
2023/08/02 09:01:48;;;;;;;0.73;0.68;;;23.00;99.90;;;;;;4945769;28;20066;-84
2023/08/02 09:04:14;;;;;;;0.60;0.60;;;23.10;99.90;;;;;;4927606;28;20811;-81
2023/08/02 09:06:40;;;;;;;0.70;0.70;;;23.30;99.90;;;;;;4965579;28;20038;-81
2023/08/02 09:09:06;;;;;;;0.70;0.70;;;23.50;99.90;;;;;;4959109;28;20088;-83
2023/08/02 09:11:32;;;;;;;0.70;0.70;;;23.70;99.90;;;;;;4961585;28;20053;-80
2023/08/02 09:14:11;;;;;;;0.80;0.80;;;23.80;99.90;;;;;;4962808;28;20040;-83
2023/08/02 09:16:54;;;;;;;0.70;0.70;;;24.00;99.90;;;;;;4975261;28;20046;-83
2023/08/02 09:19:23;;;;;;;1.08;1.08;;;24.00;99.90;;;;;;4953378;28;20133;-82
2023/08/02 09:22:08;;;;;;;0.82;0.82;;;24.10;99.90;;;;;;4964734;28;20042;-80
2023/08/02 09:24:36;;;;;;;0.77;0.77;;;24.20;99.90;;;;;;4956876;28;20030;-80
2023/08/02 09:27:07;;;;;;;0.80;0.80;;;24.40;99.90;;;;;;4941176;28;20027;-82
2023/08/02 09:29:52;;;;;;;0.88;0.88;;;24.60;99.90;;;;;;4979362;28;20029;-80
2023/08/02 09:32:20;;;;;;;0.80;0.80;;;24.80;99.90;;;;;;4944950;28;20098;-83
2023/08/02 09:34:47;;;;;;;1.23;1.13;;;25.20;99.90;;;;;;4958541;28;20236;-80
2023/08/02 09:37:16;;;;;;;0.80;0.80;;;25.60;99.90;;;;;;4947825;28;20058;-82
2023/08/02 09:39:51;;;;;;;0.90;0.90;;;25.80;99.90;;;;;;4938106;28;20235;-81
2023/08/02 09:42:21;;;;;;;0.80;0.80;;;26.10;99.90;;;;;;4960039;28;20035;-83
2023/08/02 09:44:58;;;;;;;1.00;1.00;;;26.10;99.90;;;;;;4964799;28;20308;-78
2023/08/02 09:47:26;;;;;;;1.08;0.90;;;26.10;99.90;;;;;;4955995;28;20026;-82
2023/08/02 09:50:06;;;;;;;0.80;0.80;;;26.10;99.90;;;;;;4944141;28;20022;-79
2023/08/02 09:52:33;;;;;;;0.80;0.80;;;25.90;99.90;;;;;;4952322;28;20133;-78
2023/08/02 09:54:59;;;;;;;0.88;0.88;;;25.70;99.90;;;;;;4971847;28;20041;-79
2023/08/02 09:57:27;;;;;;;1.05;0.80;;;25.50;99.90;;;;;;4949636;28;20046;-82
2023/08/02 09:59:55;;;;;;;0.85;0.85;;;25.40;99.90;;;;;;4980076;28;20076;-79
2023/08/02 10:02:24;;;;;;;0.70;0.70;;;25.20;99.90;;;;;;4955368;28;20063;-82
2023/08/02 10:04:57;;;;;;;0.95;0.88;;;25.00;99.90;;;;;;4971550;28;20042;-80
2023/08/02 10:07:37;;;;;;;0.70;0.70;;;24.80;99.90;;;;;;4926275;28;20031;-84
2023/08/02 10:10:22;;;;;;;0.88;0.88;;;24.60;99.90;;;;;;4955072;28;20082;-79
2023/08/02 10:13:05;;;;;;;0.70;0.70;;;24.30;99.90;;;;;;4972462;28;21017;-81
2023/08/02 10:15:31;;;;;;;0.60;0.60;;;24.10;99.90;;;;;;4958839;28;20160;-83
2023/08/02 10:17:59;;;;;;;0.68;0.68;;;23.80;99.90;;;;;;4983044;28;20022;-81
2023/08/02 10:20:25;;;;;;;0.63;0.63;;;23.70;99.90;;;;;;4927725;28;20295;-81
2023/08/02 10:22:51;;;;;;;1.80;0.80;;;23.50;99.90;;;;;;4964013;28;20025;-86
2023/08/02 10:25:19;;;;;;;0.77;0.75;;;23.30;99.90;;;;;;4970975;28;20042;-86
2023/08/02 10:27:46;;;;;;;1.03;0.60;;;23.20;99.90;;;;;;4965712;28;20018;-82
2023/08/02 10:30:13;;;;;;;1.23;0.80;;;23.10;99.90;;;;;;4956077;28;20025;-85
2023/08/02 10:32:39;;;;;;;3.20;0.90;;;23.20;99.90;;;;;;4942395;28;20447;-80
2023/08/02 10:35:05;;;;;;;1.50;1.20;;;23.30;99.90;;;;;;4946457;28;20589;-82
2023/08/02 10:37:53;;;;;;;2.27;1.00;;;23.60;99.90;;;;;;4928374;28;20057;-80
2023/08/02 10:40:21;;;;;;;3.42;1.00;;;24.00;99.90;;;;;;4979277;28;20092;-83
2023/08/02 10:43:07;;;;;;;1.10;0.98;;;24.40;99.90;;;;;;4945667;28;20125;-80
2023/08/02 10:45:34;;;;;;;2.63;1.10;;;24.80;99.90;;;;;;4949327;28;20217;-81
2023/08/02 10:48:25;;;;;;;1.92;1.10;;;25.10;99.90;;;;;;4951543;28;20033;-81
2023/08/02 10:50:52;;;;;;;1.97;1.17;;;25.50;99.90;;;;;;4971463;28;20124;-80
2023/08/02 10:53:18;;;;;;;1.85;1.08;;;25.90;99.90;;;;;;4962698;28;20041;-82
2023/08/02 10:56:17;;;;;;;2.72;1.20;;;26.30;99.90;;;;;;4985425;28;20030;-79
2023/08/02 10:58:47;;;;;;;2.70;1.23;;;26.60;99.90;;;;;;4924012;28;20374;-80
2023/08/02 11:01:13;;;;;;;2.78;1.25;;;26.90;99.90;;;;;;4937508;28;20029;-82
2023/08/02 11:03:39;;;;;;;3.13;1.17;;;27.20;99.90;;;;;;4959969;28;20479;-79
2023/08/02 11:06:06;;;;;;;2.97;1.30;;;27.40;99.90;;;;;;4966628;28;20049;-83
2023/08/02 11:08:46;;;;;;;1.95;1.10;;;27.60;99.90;;;;;;4940414;28;20150;-79
2023/08/02 11:11:11;;;;;;;3.72;1.20;;;27.80;99.90;;;;;;4950957;28;20160;-82
2023/08/02 11:13:39;;;;;;;2.97;1.33;;;28.10;99.90;;;;;;4952002;28;20290;-81
2023/08/02 11:16:06;;;;;;;3.15;1.23;;;28.20;99.90;;;;;;4941611;28;20113;-82
2023/08/02 11:18:33;;;;;;;2.17;1.15;;;28.20;99.90;;;;;;4959856;28;20144;-78
2023/08/02 11:21:13;;;;;;;2.58;0.93;;;28.20;99.90;;;;;;4933798;28;20026;-79
2023/08/02 11:23:40;;;;;;;2.87;0.97;;;28.00;99.90;;;;;;4955825;28;20251;-80
2023/08/02 11:26:13;;;;;;;3.28;1.10;;;27.80;99.90;;;;;;4967418;28;20040;-81
2023/08/02 11:28:52;;;;;;;3.13;1.10;;;27.70;99.90;;;;;;4970462;28;20743;-79
2023/08/02 11:31:21;;;;;;;3.22;1.00;;;27.60;99.90;;;;;;4950853;28;20057;-81
2023/08/02 11:33:47;;;;;;;3.83;1.10;;;27.40;99.90;;;;;;4948987;28;20049;-81
2023/08/02 11:36:13;;;;;;;3.33;1.10;;;27.50;99.90;;;;;;4968592;28;20626;-81
2023/08/02 11:38:39;;;;;;;2.55;1.10;;;27.60;99.90;;;;;;4971087;28;20375;-79
2023/08/02 11:41:21;;;;;;;2.65;1.25;;;27.80;99.90;;;;;;4943882;28;20385;-82
2023/08/02 11:43:48;;;;;;;3.65;1.50;;;28.00;99.90;;;;;;4951434;28;20433;-78
2023/08/02 11:46:24;;;;;;;2.80;1.10;;;28.20;99.90;;;;;;4946543;28;20108;-80
2023/08/02 11:48:50;;;;;;;2.53;0.90;;;28.40;99.90;;;;;;4962232;28;20518;-78
2023/08/02 11:51:18;;;;;;;3.10;1.38;;;28.50;99.90;;;;;;4948568;28;20030;-81
2023/08/02 11:53:55;;;;;;;3.05;1.15;;;28.70;99.90;;;;;;4963743;28;20033;-79
2023/08/02 11:56:22;;;;;;;2.22;1.20;;;28.90;99.90;;;;;;4940985;28;20087;-80
2023/08/02 11:58:49;;;;;;;1.83;1.20;;;29.00;99.90;;;;;;4962675;28;20662;-79
2023/08/02 12:01:15;;;;;;;2.63;1.30;;;29.20;99.90;;;;;;4935189;28;20031;-80
2023/08/02 12:04:04;;;;;;;2.13;1.48;;;29.40;99.90;;;;;;4962665;28;20048;-81
2023/08/02 12:06:50;;;;;;;1.58;0.80;;;29.50;99.90;;;;;;4973474;28;20080;-79
2023/08/02 12:09:16;;;;;;;2.17;0.90;;;29.60;99.90;;;;;;4932460;28;20538;-80
2023/08/02 12:11:54;;;;;;;2.13;1.10;;;29.50;99.90;;;;;;4942977;28;20140;-78
2023/08/02 12:14:30;;;;;;;2.03;0.90;;;29.50;99.90;;;;;;4942402;28;20041;-82
2023/08/02 12:16:56;;;;;;;1.27;0.90;;;29.60;99.90;;;;;;4947162;28;20039;-80
2023/08/02 12:19:38;;;;;;;1.83;0.98;;;29.60;99.90;;;;;;4976314;28;20049;-81
2023/08/02 12:22:04;;;;;;;1.35;1.00;;;29.80;99.90;;;;;;4983610;28;20022;-81
2023/08/02 12:24:31;;;;;;;2.60;1.13;;;29.90;99.90;;;;;;4952302;28;20299;-80
2023/08/02 12:27:14;;;;;;;4.15;1.10;;;30.10;99.90;;;;;;4950689;28;20029;-78
2023/08/02 12:29:42;;;;;;;1.65;1.10;;;30.40;99.90;;;;;;4952078;28;20658;-78
2023/08/02 12:32:08;;;;;;;2.17;1.10;;;30.40;99.90;;;;;;4960951;28;20088;-80
2023/08/02 12:34:36;;;;;;;2.40;0.90;;;30.60;99.90;;;;;;4955203;28;20239;-81
2023/08/02 12:37:04;;;;;;;2.35;1.10;;;30.70;99.90;;;;;;4967993;28;20104;-80
2023/08/02 12:39:29;;;;;;;3.00;1.10;;;30.70;99.90;;;;;;4950932;28;20027;-77
2023/08/02 12:41:55;;;;;;;2.40;1.00;;;30.60;99.90;;;;;;4984643;28;20114;-80
2023/08/02 12:44:21;;;;;;;1.73;1.08;;;30.50;99.90;;;;;;4928508;28;20076;-82
2023/08/02 12:46:47;;;;;;;3.77;1.20;;;30.30;99.90;;;;;;4979519;28;20168;-78
2023/08/02 12:49:13;;;;;;;7.65;0.88;;;30.20;99.90;;;;;;4957446;28;20231;-81
2023/08/02 12:51:39;;;;;;;1.00;0.67;;;30.00;99.90;;;;;;4949162;28;20441;-77